sensor_id;sensor_type;location;lat;lon;timestamp;P1;durP1;ratioP1;P2;durP2;ratioP2
13455;SDS011;6800;50.940;6.940;2023-07-24T00:01:36;4.95;;;4.47;;
13455;SDS011;6800;50.940;6.940;2023-07-24T00:05:38;4.10;;;3.70;;
13455;SDS011;6800;50.940;6.940;2023-07-24T00:09:39;5.35;;;3.80;;
13455;SDS011;6800;50.940;6.940;2023-07-24T00:13:40;3.92;;;3.35;;
13455;SDS011;6800;50.940;6.940;2023-07-24T00:17:42;4.10;;;3.70;;
13455;SDS011;6800;50.940;6.940;2023-07-24T00:21:43;4.75;;;3.50;;
13455;SDS011;6800;50.940;6.940;2023-07-24T00:25:44;3.60;;;3.13;;
13455;SDS011;6800;50.940;6.940;2023-07-24T00:29:46;4.35;;;3.20;;
13455;SDS011;6800;50.940;6.940;2023-07-24T00:33:47;3.35;;;3.05;;
13455;SDS011;6800;50.940;6.940;2023-07-24T00:37:48;3.38;;;3.08;;
13455;SDS011;6800;50.940;6.940;2023-07-24T00:41:50;3.40;;;3.10;;
13455;SDS011;6800;50.940;6.940;2023-07-24T00:45:51;4.03;;;3.10;;
13455;SDS011;6800;50.940;6.940;2023-07-24T00:49:53;4.43;;;3.08;;
13455;SDS011;6800;50.940;6.940;2023-07-24T00:53:55;3.38;;;2.75;;
13455;SDS011;6800;50.940;6.940;2023-07-24T00:57:58;3.65;;;3.13;;
13455;SDS011;6800;50.940;6.940;2023-07-24T01:02:01;4.80;;;3.03;;
13455;SDS011;6800;50.940;6.940;2023-07-24T01:06:02;3.25;;;2.67;;
13455;SDS011;6800;50.940;6.940;2023-07-24T01:10:04;4.10;;;3.38;;
13455;SDS011;6800;50.940;6.940;2023-07-24T01:18:22;3.20;;;3.00;;
13455;SDS011;6800;50.940;6.940;2023-07-24T01:22:32;3.33;;;3.03;;
13455;SDS011;6800;50.940;6.940;2023-07-24T01:26:49;5.97;;;3.20;;
13455;SDS011;6800;50.940;6.940;2023-07-24T01:30:52;3.70;;;3.35;;
13455;SDS011;6800;50.940;6.940;2023-07-24T01:34:54;3.78;;;3.33;;
13455;SDS011;6800;50.940;6.940;2023-07-24T01:38:55;3.28;;;2.92;;
13455;SDS011;6800;50.940;6.940;2023-07-24T01:42:57;4.03;;;3.65;;
13455;SDS011;6800;50.940;6.940;2023-07-24T01:47:00;3.47;;;3.17;;
13455;SDS011;6800;50.940;6.940;2023-07-24T01:51:02;3.70;;;3.30;;
13455;SDS011;6800;50.940;6.940;2023-07-24T01:55:03;4.80;;;3.50;;
13455;SDS011;6800;50.940;6.940;2023-07-24T01:59:05;3.63;;;3.28;;
13455;SDS011;6800;50.940;6.940;2023-07-24T02:03:07;4.22;;;3.38;;
13455;SDS011;6800;50.940;6.940;2023-07-24T02:07:08;4.03;;;3.53;;
13455;SDS011;6800;50.940;6.940;2023-07-24T02:11:10;6.72;;;3.85;;
13455;SDS011;6800;50.940;6.940;2023-07-24T02:15:11;4.93;;;3.40;;
13455;SDS011;6800;50.940;6.940;2023-07-24T02:19:12;5.15;;;3.42;;
13455;SDS011;6800;50.940;6.940;2023-07-24T02:23:14;5.18;;;3.83;;
13455;SDS011;6800;50.940;6.940;2023-07-24T02:27:26;5.15;;;4.20;;
13455;SDS011;6800;50.940;6.940;2023-07-24T02:31:29;7.13;;;4.22;;
13455;SDS011;6800;50.940;6.940;2023-07-24T02:35:31;6.50;;;4.07;;
13455;SDS011;6800;50.940;6.940;2023-07-24T02:39:32;9.00;;;4.70;;
13455;SDS011;6800;50.940;6.940;2023-07-24T02:43:33;5.15;;;4.47;;
13455;SDS011;6800;50.940;6.940;2023-07-24T02:47:35;5.35;;;4.85;;
13455;SDS011;6800;50.940;6.940;2023-07-24T02:51:36;8.43;;;4.28;;
13455;SDS011;6800;50.940;6.940;2023-07-24T02:55:41;5.95;;;4.47;;
13455;SDS011;6800;50.940;6.940;2023-07-24T02:59:43;5.20;;;4.70;;
13455;SDS011;6800;50.940;6.940;2023-07-24T03:03:45;7.40;;;4.50;;
13455;SDS011;6800;50.940;6.940;2023-07-24T03:07:46;6.07;;;4.53;;
13455;SDS011;6800;50.940;6.940;2023-07-24T03:11:47;7.43;;;4.35;;
13455;SDS011;6800;50.940;6.940;2023-07-24T03:15:55;5.82;;;4.18;;
13455;SDS011;6800;50.940;6.940;2023-07-24T03:19:58;4.47;;;3.78;;
13455;SDS011;6800;50.940;6.940;2023-07-24T03:24:00;9.27;;;4.40;;
13455;SDS011;6800;50.940;6.940;2023-07-24T03:28:01;5.57;;;4.07;;
13455;SDS011;6800;50.940;6.940;2023-07-24T03:32:03;4.78;;;4.32;;
13455;SDS011;6800;50.940;6.940;2023-07-24T03:36:05;4.50;;;3.80;;
13455;SDS011;6800;50.940;6.940;2023-07-24T03:40:06;5.03;;;4.15;;
13455;SDS011;6800;50.940;6.940;2023-07-24T03:44:08;5.80;;;4.20;;
13455;SDS011;6800;50.940;6.940;2023-07-24T03:48:10;5.70;;;4.15;;
13455;SDS011;6800;50.940;6.940;2023-07-24T03:52:11;4.80;;;4.32;;
13455;SDS011;6800;50.940;6.940;2023-07-24T03:56:12;5.57;;;3.97;;
13455;SDS011;6800;50.940;6.940;2023-07-24T04:00:14;4.20;;;3.80;;
13455;SDS011;6800;50.940;6.940;2023-07-24T04:04:15;4.32;;;3.53;;
13455;SDS011;6800;50.940;6.940;2023-07-24T04:08:17;5.57;;;4.00;;
13455;SDS011;6800;50.940;6.940;2023-07-24T04:12:18;4.68;;;3.78;;
13455;SDS011;6800;50.940;6.940;2023-07-24T04:16:19;4.70;;;3.80;;
13455;SDS011;6800;50.940;6.940;2023-07-24T04:20:21;4.30;;;3.55;;
13455;SDS011;6800;50.940;6.940;2023-07-24T04:24:22;4.65;;;3.35;;
13455;SDS011;6800;50.940;6.940;2023-07-24T04:28:23;5.63;;;4.18;;
13455;SDS011;6800;50.940;6.940;2023-07-24T04:32:28;7.85;;;4.55;;
13455;SDS011;6800;50.940;6.940;2023-07-24T04:36:30;8.30;;;4.10;;
13455;SDS011;6800;50.940;6.940;2023-07-24T04:40:32;5.53;;;4.47;;
13455;SDS011;6800;50.940;6.940;2023-07-24T04:44:34;6.45;;;4.22;;
13455;SDS011;6800;50.940;6.940;2023-07-24T04:48:35;4.72;;;4.28;;
13455;SDS011;6800;50.940;6.940;2023-07-24T04:52:37;4.35;;;3.92;;
13455;SDS011;6800;50.940;6.940;2023-07-24T04:56:39;5.97;;;4.10;;
13455;SDS011;6800;50.940;6.940;2023-07-24T05:00:40;6.53;;;4.22;;
13455;SDS011;6800;50.940;6.940;2023-07-24T05:04:42;6.72;;;3.95;;
13455;SDS011;6800;50.940;6.940;2023-07-24T05:08:43;4.88;;;3.90;;
13455;SDS011;6800;50.940;6.940;2023-07-24T05:12:45;5.57;;;4.45;;
13455;SDS011;6800;50.940;6.940;2023-07-24T05:16:46;5.22;;;4.22;;
13455;SDS011;6800;50.940;6.940;2023-07-24T05:20:48;4.53;;;4.05;;
13455;SDS011;6800;50.940;6.940;2023-07-24T05:24:52;4.35;;;3.95;;
13455;SDS011;6800;50.940;6.940;2023-07-24T05:28:54;5.35;;;3.95;;
13455;SDS011;6800;50.940;6.940;2023-07-24T05:32:55;5.22;;;3.92;;
13455;SDS011;6800;50.940;6.940;2023-07-24T05:36:56;4.25;;;3.70;;
13455;SDS011;6800;50.940;6.940;2023-07-24T05:40:59;4.20;;;3.80;;
13455;SDS011;6800;50.940;6.940;2023-07-24T05:45:01;5.93;;;4.35;;
13455;SDS011;6800;50.940;6.940;2023-07-24T05:49:03;5.13;;;3.42;;
13455;SDS011;6800;50.940;6.940;2023-07-24T05:53:04;5.70;;;3.78;;
13455;SDS011;6800;50.940;6.940;2023-07-24T05:57:06;4.75;;;3.47;;
13455;SDS011;6800;50.940;6.940;2023-07-24T06:01:07;6.65;;;3.97;;
13455;SDS011;6800;50.940;6.940;2023-07-24T06:05:11;6.00;;;3.90;;
13455;SDS011;6800;50.940;6.940;2023-07-24T06:09:13;5.50;;;3.90;;
13455;SDS011;6800;50.940;6.940;2023-07-24T06:13:18;5.15;;;3.53;;
13455;SDS011;6800;50.940;6.940;2023-07-24T06:17:19;5.63;;;4.13;;
13455;SDS011;6800;50.940;6.940;2023-07-24T06:21:21;7.90;;;4.32;;
13455;SDS011;6800;50.940;6.940;2023-07-24T06:25:22;5.00;;;4.15;;
13455;SDS011;6800;50.940;6.940;2023-07-24T06:29:24;5.53;;;4.85;;
13455;SDS011;6800;50.940;6.940;2023-07-24T06:33:27;6.13;;;4.15;;
13455;SDS011;6800;50.940;6.940;2023-07-24T06:37:28;7.63;;;4.30;;
13455;SDS011;6800;50.940;6.940;2023-07-24T06:41:29;5.15;;;4.10;;
13455;SDS011;6800;50.940;6.940;2023-07-24T06:45:31;6.90;;;4.75;;
13455;SDS011;6800;50.940;6.940;2023-07-24T06:49:32;5.32;;;3.63;;
13455;SDS011;6800;50.940;6.940;2023-07-24T06:53:34;6.30;;;4.45;;
13455;SDS011;6800;50.940;6.940;2023-07-24T06:57:36;4.90;;;3.78;;
13455;SDS011;6800;50.940;6.940;2023-07-24T07:01:37;4.45;;;3.30;;
13455;SDS011;6800;50.940;6.940;2023-07-24T07:05:39;4.75;;;3.40;;
13455;SDS011;6800;50.940;6.940;2023-07-24T07:09:40;3.35;;;2.63;;
13455;SDS011;6800;50.940;6.940;2023-07-24T07:13:42;5.60;;;3.05;;
13455;SDS011;6800;50.940;6.940;2023-07-24T07:17:43;3.03;;;2.78;;
13455;SDS011;6800;50.940;6.940;2023-07-24T07:21:44;6.13;;;3.25;;
13455;SDS011;6800;50.940;6.940;2023-07-24T07:25:46;4.15;;;3.20;;
13455;SDS011;6800;50.940;6.940;2023-07-24T07:29:47;4.53;;;3.15;;
13455;SDS011;6800;50.940;6.940;2023-07-24T07:33:49;4.38;;;4.07;;
13455;SDS011;6800;50.940;6.940;2023-07-24T07:37:50;3.13;;;2.83;;
13455;SDS011;6800;50.940;6.940;2023-07-24T07:41:51;4.65;;;3.05;;
13455;SDS011;6800;50.940;6.940;2023-07-24T07:46:12;3.95;;;3.03;;
13455;SDS011;6800;50.940;6.940;2023-07-24T07:50:13;4.18;;;2.70;;
13455;SDS011;6800;50.940;6.940;2023-07-24T07:54:15;6.53;;;3.00;;
13455;SDS011;6800;50.940;6.940;2023-07-24T07:58:17;5.38;;;3.10;;
13455;SDS011;6800;50.940;6.940;2023-07-24T08:02:18;6.25;;;3.38;;
13455;SDS011;6800;50.940;6.940;2023-07-24T08:06:19;6.00;;;3.67;;
13455;SDS011;6800;50.940;6.940;2023-07-24T08:10:22;5.60;;;3.85;;
13455;SDS011;6800;50.940;6.940;2023-07-24T08:14:23;5.00;;;3.28;;
13455;SDS011;6800;50.940;6.940;2023-07-24T08:18:25;3.95;;;3.17;;
13455;SDS011;6800;50.940;6.940;2023-07-24T08:22:27;3.97;;;3.60;;
13455;SDS011;6800;50.940;6.940;2023-07-24T08:26:28;4.65;;;3.63;;
13455;SDS011;6800;50.940;6.940;2023-07-24T08:30:30;5.03;;;4.03;;
13455;SDS011;6800;50.940;6.940;2023-07-24T08:34:32;3.78;;;3.42;;
13455;SDS011;6800;50.940;6.940;2023-07-24T08:38:34;3.50;;;3.15;;
13455;SDS011;6800;50.940;6.940;2023-07-24T08:42:39;4.97;;;3.20;;
13455;SDS011;6800;50.940;6.940;2023-07-24T08:46:44;6.43;;;5.13;;
13455;SDS011;6800;50.940;6.940;2023-07-24T08:50:47;4.03;;;3.10;;
13455;SDS011;6800;50.940;6.940;2023-07-24T08:54:51;3.80;;;3.40;;
13455;SDS011;6800;50.940;6.940;2023-07-24T08:58:53;3.30;;;3.00;;
13455;SDS011;6800;50.940;6.940;2023-07-24T09:02:54;3.35;;;3.05;;
13455;SDS011;6800;50.940;6.940;2023-07-24T09:06:56;6.75;;;3.90;;
13455;SDS011;6800;50.940;6.940;2023-07-24T09:11:00;5.00;;;3.30;;
13455;SDS011;6800;50.940;6.940;2023-07-24T09:15:06;3.60;;;2.78;;
13455;SDS011;6800;50.940;6.940;2023-07-24T09:19:16;3.95;;;3.53;;
13455;SDS011;6800;50.940;6.940;2023-07-24T09:23:27;3.40;;;2.97;;
13455;SDS011;6800;50.940;6.940;2023-07-24T09:27:29;5.25;;;3.72;;
13455;SDS011;6800;50.940;6.940;2023-07-24T09:31:36;5.40;;;3.85;;
13455;SDS011;6800;50.940;6.940;2023-07-24T09:35:37;2.70;;;2.20;;
13455;SDS011;6800;50.940;6.940;2023-07-24T09:39:39;3.03;;;2.50;;
13455;SDS011;6800;50.940;6.940;2023-07-24T09:43:41;2.72;;;2.53;;
13455;SDS011;6800;50.940;6.940;2023-07-24T09:47:43;4.75;;;2.75;;
13455;SDS011;6800;50.940;6.940;2023-07-24T09:51:47;5.43;;;3.15;;
13455;SDS011;6800;50.940;6.940;2023-07-24T09:55:58;4.20;;;3.38;;
13455;SDS011;6800;50.940;6.940;2023-07-24T10:00:00;3.90;;;2.90;;
13455;SDS011;6800;50.940;6.940;2023-07-24T10:04:02;7.38;;;3.42;;
13455;SDS011;6800;50.940;6.940;2023-07-24T10:08:05;3.50;;;3.20;;
13455;SDS011;6800;50.940;6.940;2023-07-24T10:12:07;3.05;;;2.75;;
13455;SDS011;6800;50.940;6.940;2023-07-24T10:16:09;3.95;;;3.65;;
13455;SDS011;6800;50.940;6.940;2023-07-24T10:20:11;2.95;;;2.65;;
13455;SDS011;6800;50.940;6.940;2023-07-24T10:24:14;4.72;;;3.03;;
13455;SDS011;6800;50.940;6.940;2023-07-24T10:28:36;4.43;;;4.13;;
13455;SDS011;6800;50.940;6.940;2023-07-24T10:32:46;4.47;;;4.07;;
13455;SDS011;6800;50.940;6.940;2023-07-24T10:36:50;3.92;;;3.50;;
13455;SDS011;6800;50.940;6.940;2023-07-24T10:41:00;2.78;;;2.58;;
13455;SDS011;6800;50.940;6.940;2023-07-24T10:45:04;2.83;;;2.63;;
13455;SDS011;6800;50.940;6.940;2023-07-24T10:49:09;3.00;;;2.70;;
13455;SDS011;6800;50.940;6.940;2023-07-24T10:53:11;3.08;;;2.78;;
13455;SDS011;6800;50.940;6.940;2023-07-24T10:57:14;6.43;;;3.22;;
13455;SDS011;6800;50.940;6.940;2023-07-24T11:01:16;5.50;;;3.95;;
13455;SDS011;6800;50.940;6.940;2023-07-24T11:05:19;13.73;;;6.07;;
13455;SDS011;6800;50.940;6.940;2023-07-24T11:09:22;3.67;;;3.25;;
13455;SDS011;6800;50.940;6.940;2023-07-24T11:13:24;6.18;;;4.45;;
13455;SDS011;6800;50.940;6.940;2023-07-24T11:17:33;8.13;;;4.60;;
13455;SDS011;6800;50.940;6.940;2023-07-24T11:21:36;10.38;;;4.93;;
13455;SDS011;6800;50.940;6.940;2023-07-24T11:25:38;8.18;;;3.95;;
13455;SDS011;6800;50.940;6.940;2023-07-24T11:29:40;5.40;;;3.10;;
13455;SDS011;6800;50.940;6.940;2023-07-24T11:33:41;4.28;;;3.28;;
13455;SDS011;6800;50.940;6.940;2023-07-24T11:37:44;3.30;;;3.00;;
13455;SDS011;6800;50.940;6.940;2023-07-24T11:41:45;3.92;;;2.70;;
13455;SDS011;6800;50.940;6.940;2023-07-24T11:45:47;8.85;;;3.95;;
13455;SDS011;6800;50.940;6.940;2023-07-24T11:50:02;4.78;;;2.45;;
13455;SDS011;6800;50.940;6.940;2023-07-24T11:54:05;5.97;;;3.10;;
13455;SDS011;6800;50.940;6.940;2023-07-24T11:58:08;3.83;;;3.05;;
13455;SDS011;6800;50.940;6.940;2023-07-24T12:02:16;7.57;;;3.47;;
13455;SDS011;6800;50.940;6.940;2023-07-24T12:06:17;6.88;;;3.97;;
13455;SDS011;6800;50.940;6.940;2023-07-24T12:10:25;7.43;;;4.45;;
13455;SDS011;6800;50.940;6.940;2023-07-24T12:14:28;5.90;;;3.50;;
13455;SDS011;6800;50.940;6.940;2023-07-24T12:18:30;3.58;;;2.10;;
13455;SDS011;6800;50.940;6.940;2023-07-24T12:22:32;3.38;;;2.45;;
13455;SDS011;6800;50.940;6.940;2023-07-24T12:26:33;3.80;;;3.10;;
13455;SDS011;6800;50.940;6.940;2023-07-24T12:30:35;6.45;;;3.25;;
13455;SDS011;6800;50.940;6.940;2023-07-24T12:34:36;3.47;;;3.17;;
13455;SDS011;6800;50.940;6.940;2023-07-24T12:38:37;4.00;;;2.50;;
13455;SDS011;6800;50.940;6.940;2023-07-24T12:42:39;4.32;;;2.45;;
13455;SDS011;6800;50.940;6.940;2023-07-24T12:46:40;5.65;;;3.28;;
13455;SDS011;6800;50.940;6.940;2023-07-24T12:50:41;3.58;;;3.20;;
13455;SDS011;6800;50.940;6.940;2023-07-24T12:54:43;3.58;;;3.15;;
13455;SDS011;6800;50.940;6.940;2023-07-24T12:59:02;5.22;;;3.30;;
13455;SDS011;6800;50.940;6.940;2023-07-24T13:03:04;4.05;;;3.63;;
13455;SDS011;6800;50.940;6.940;2023-07-24T13:07:05;3.90;;;3.50;;
13455;SDS011;6800;50.940;6.940;2023-07-24T13:11:07;6.90;;;4.65;;
13455;SDS011;6800;50.940;6.940;2023-07-24T13:15:08;5.47;;;3.60;;
13455;SDS011;6800;50.940;6.940;2023-07-24T13:19:10;2.92;;;2.63;;
13455;SDS011;6800;50.940;6.940;2023-07-24T13:23:11;3.30;;;2.05;;
13455;SDS011;6800;50.940;6.940;2023-07-24T13:27:13;3.38;;;2.40;;
13455;SDS011;6800;50.940;6.940;2023-07-24T13:31:15;5.00;;;2.80;;
13455;SDS011;6800;50.940;6.940;2023-07-24T13:35:21;4.38;;;3.00;;
13455;SDS011;6800;50.940;6.940;2023-07-24T13:39:23;3.85;;;3.03;;
13455;SDS011;6800;50.940;6.940;2023-07-24T13:43:24;4.97;;;3.97;;
13455;SDS011;6800;50.940;6.940;2023-07-24T13:47:26;3.97;;;3.58;;
13455;SDS011;6800;50.940;6.940;2023-07-24T13:51:27;3.45;;;3.13;;
13455;SDS011;6800;50.940;6.940;2023-07-24T13:55:29;3.60;;;3.30;;
13455;SDS011;6800;50.940;6.940;2023-07-24T13:59:30;6.75;;;3.80;;
13455;SDS011;6800;50.940;6.940;2023-07-24T14:03:32;2.88;;;2.58;;
13455;SDS011;6800;50.940;6.940;2023-07-24T14:07:33;4.85;;;2.92;;
13455;SDS011;6800;50.940;6.940;2023-07-24T14:11:34;4.57;;;3.22;;
13455;SDS011;6800;50.940;6.940;2023-07-24T14:15:36;3.25;;;2.88;;
13455;SDS011;6800;50.940;6.940;2023-07-24T14:19:37;5.35;;;3.17;;
13455;SDS011;6800;50.940;6.940;2023-07-24T14:23:38;3.40;;;2.22;;
13455;SDS011;6800;50.940;6.940;2023-07-24T14:27:40;2.70;;;2.00;;
13455;SDS011;6800;50.940;6.940;2023-07-24T14:31:41;2.72;;;1.98;;
13455;SDS011;6800;50.940;6.940;2023-07-24T14:35:43;1.70;;;1.38;;
13455;SDS011;6800;50.940;6.940;2023-07-24T14:39:44;2.00;;;1.80;;
13455;SDS011;6800;50.940;6.940;2023-07-24T14:43:45;1.50;;;1.23;;
13455;SDS011;6800;50.940;6.940;2023-07-24T14:47:47;2.22;;;1.52;;
13455;SDS011;6800;50.940;6.940;2023-07-24T14:51:50;1.67;;;1.48;;
13455;SDS011;6800;50.940;6.940;2023-07-24T14:55:51;1.92;;;1.77;;
13455;SDS011;6800;50.940;6.940;2023-07-24T14:59:53;2.30;;;1.60;;
13455;SDS011;6800;50.940;6.940;2023-07-24T15:03:56;1.85;;;1.60;;
13455;SDS011;6800;50.940;6.940;2023-07-24T15:07:57;3.55;;;2.30;;
13455;SDS011;6800;50.940;6.940;2023-07-24T15:11:59;3.65;;;2.05;;
13455;SDS011;6800;50.940;6.940;2023-07-24T15:16:00;1.98;;;1.50;;
13455;SDS011;6800;50.940;6.940;2023-07-24T15:20:02;2.22;;;1.10;;
13455;SDS011;6800;50.940;6.940;2023-07-24T15:24:04;1.45;;;1.35;;
13455;SDS011;6800;50.940;6.940;2023-07-24T15:28:05;1.60;;;1.40;;
13455;SDS011;6800;50.940;6.940;2023-07-24T15:32:07;2.58;;;1.13;;
13455;SDS011;6800;50.940;6.940;2023-07-24T15:36:08;2.05;;;1.67;;
13455;SDS011;6800;50.940;6.940;2023-07-24T15:40:10;1.63;;;1.50;;
13455;SDS011;6800;50.940;6.940;2023-07-24T15:44:13;4.60;;;1.70;;
13455;SDS011;6800;50.940;6.940;2023-07-24T15:48:15;1.52;;;1.27;;
13455;SDS011;6800;50.940;6.940;2023-07-24T15:52:26;5.18;;;3.45;;
13455;SDS011;6800;50.940;6.940;2023-07-24T15:56:27;1.50;;;1.40;;
13455;SDS011;6800;50.940;6.940;2023-07-24T16:00:28;2.78;;;2.22;;
13455;SDS011;6800;50.940;6.940;2023-07-24T16:04:30;3.15;;;1.88;;
13455;SDS011;6800;50.940;6.940;2023-07-24T16:08:31;1.85;;;1.70;;
13455;SDS011;6800;50.940;6.940;2023-07-24T16:12:32;2.97;;;1.33;;
13455;SDS011;6800;50.940;6.940;2023-07-24T16:16:34;2.08;;;1.67;;
13455;SDS011;6800;50.940;6.940;2023-07-24T16:20:35;2.92;;;1.75;;
13455;SDS011;6800;50.940;6.940;2023-07-24T16:24:37;3.35;;;1.40;;
13455;SDS011;6800;50.940;6.940;2023-07-24T16:28:39;1.52;;;1.42;;
13455;SDS011;6800;50.940;6.940;2023-07-24T16:32:41;2.15;;;1.67;;
13455;SDS011;6800;50.940;6.940;2023-07-24T16:36:50;2.17;;;1.85;;
13455;SDS011;6800;50.940;6.940;2023-07-24T16:40:51;3.20;;;2.90;;
13455;SDS011;6800;50.940;6.940;2023-07-24T16:44:53;1.92;;;1.77;;
13455;SDS011;6800;50.940;6.940;2023-07-24T16:48:57;2.88;;;1.95;;
13455;SDS011;6800;50.940;6.940;2023-07-24T16:52:58;2.80;;;1.80;;
13455;SDS011;6800;50.940;6.940;2023-07-24T16:57:00;2.22;;;1.70;;
13455;SDS011;6800;50.940;6.940;2023-07-24T17:01:01;2.85;;;2.40;;
13455;SDS011;6800;50.940;6.940;2023-07-24T17:05:03;3.70;;;2.22;;
13455;SDS011;6800;50.940;6.940;2023-07-24T17:09:05;3.47;;;2.30;;
13455;SDS011;6800;50.940;6.940;2023-07-24T17:13:06;3.90;;;3.15;;
13455;SDS011;6800;50.940;6.940;2023-07-24T17:17:07;4.05;;;3.40;;
13455;SDS011;6800;50.940;6.940;2023-07-24T17:21:09;3.20;;;2.90;;
13455;SDS011;6800;50.940;6.940;2023-07-24T17:25:10;6.22;;;3.13;;
13455;SDS011;6800;50.940;6.940;2023-07-24T17:29:11;4.60;;;3.60;;
13455;SDS011;6800;50.940;6.940;2023-07-24T17:33:13;6.93;;;3.72;;
13455;SDS011;6800;50.940;6.940;2023-07-24T17:37:14;6.63;;;3.75;;
13455;SDS011;6800;50.940;6.940;2023-07-24T17:41:36;4.40;;;3.90;;
13455;SDS011;6800;50.940;6.940;2023-07-24T17:45:37;7.95;;;6.15;;
13455;SDS011;6800;50.940;6.940;2023-07-24T17:49:39;7.93;;;4.68;;
13455;SDS011;6800;50.940;6.940;2023-07-24T17:53:47;5.07;;;4.40;;
13455;SDS011;6800;50.940;6.940;2023-07-24T17:57:49;7.10;;;4.67;;
13455;SDS011;6800;50.940;6.940;2023-07-24T18:01:51;4.80;;;4.40;;
13455;SDS011;6800;50.940;6.940;2023-07-24T18:05:53;5.35;;;4.85;;
13455;SDS011;6800;50.940;6.940;2023-07-24T18:09:56;4.47;;;4.07;;
13455;SDS011;6800;50.940;6.940;2023-07-24T18:13:58;4.57;;;3.50;;
13455;SDS011;6800;50.940;6.940;2023-07-24T18:17:59;3.80;;;3.50;;
13455;SDS011;6800;50.940;6.940;2023-07-24T18:22:01;3.05;;;2.85;;
13455;SDS011;6800;50.940;6.940;2023-07-24T18:26:02;4.30;;;3.83;;
13455;SDS011;6800;50.940;6.940;2023-07-24T18:30:05;4.13;;;3.72;;
13455;SDS011;6800;50.940;6.940;2023-07-24T18:34:09;4.15;;;3.85;;
13455;SDS011;6800;50.940;6.940;2023-07-24T18:38:11;8.60;;;6.72;;
13455;SDS011;6800;50.940;6.940;2023-07-24T18:42:12;6.68;;;5.30;;
13455;SDS011;6800;50.940;6.940;2023-07-24T18:46:15;6.07;;;5.25;;
13455;SDS011;6800;50.940;6.940;2023-07-24T18:50:17;4.90;;;3.83;;
13455;SDS011;6800;50.940;6.940;2023-07-24T18:54:19;5.40;;;4.90;;
13455;SDS011;6800;50.940;6.940;2023-07-24T18:58:22;5.80;;;5.15;;
13455;SDS011;6800;50.940;6.940;2023-07-24T19:02:23;6.53;;;5.78;;
13455;SDS011;6800;50.940;6.940;2023-07-24T19:06:25;4.80;;;4.30;;
13455;SDS011;6800;50.940;6.940;2023-07-24T19:10:26;6.88;;;4.70;;
13455;SDS011;6800;50.940;6.940;2023-07-24T19:14:28;6.13;;;5.53;;
13455;SDS011;6800;50.940;6.940;2023-07-24T19:18:29;5.90;;;4.88;;
13455;SDS011;6800;50.940;6.940;2023-07-24T19:22:30;6.35;;;5.75;;
13455;SDS011;6800;50.940;6.940;2023-07-24T19:26:32;10.57;;;6.65;;
13455;SDS011;6800;50.940;6.940;2023-07-24T19:30:33;9.10;;;6.65;;
13455;SDS011;6800;50.940;6.940;2023-07-24T19:34:35;6.00;;;5.40;;
13455;SDS011;6800;50.940;6.940;2023-07-24T19:38:36;6.45;;;5.40;;
13455;SDS011;6800;50.940;6.940;2023-07-24T19:42:38;9.52;;;7.20;;
13455;SDS011;6800;50.940;6.940;2023-07-24T19:46:39;8.93;;;8.05;;
13455;SDS011;6800;50.940;6.940;2023-07-24T19:50:48;11.02;;;8.32;;
13455;SDS011;6800;50.940;6.940;2023-07-24T19:54:50;8.30;;;6.32;;
13455;SDS011;6800;50.940;6.940;2023-07-24T19:58:52;6.50;;;5.88;;
13455;SDS011;6800;50.940;6.940;2023-07-24T20:02:54;6.38;;;5.60;;
13455;SDS011;6800;50.940;6.940;2023-07-24T20:06:56;8.32;;;6.97;;
13455;SDS011;6800;50.940;6.940;2023-07-24T20:10:58;7.68;;;6.03;;
13455;SDS011;6800;50.940;6.940;2023-07-24T20:15:01;8.07;;;6.18;;
13455;SDS011;6800;50.940;6.940;2023-07-24T20:19:03;5.97;;;4.90;;
13455;SDS011;6800;50.940;6.940;2023-07-24T20:23:04;6.30;;;5.70;;
13455;SDS011;6800;50.940;6.940;2023-07-24T20:27:06;5.97;;;5.22;;
13455;SDS011;6800;50.940;6.940;2023-07-24T20:31:07;5.38;;;4.88;;
13455;SDS011;6800;50.940;6.940;2023-07-24T20:35:09;6.45;;;5.47;;
13455;SDS011;6800;50.940;6.940;2023-07-24T20:39:10;5.70;;;5.20;;
13455;SDS011;6800;50.940;6.940;2023-07-24T20:43:18;6.13;;;5.53;;
13455;SDS011;6800;50.940;6.940;2023-07-24T20:47:20;5.60;;;5.00;;
13455;SDS011;6800;50.940;6.940;2023-07-24T20:51:21;6.15;;;5.55;;
13455;SDS011;6800;50.940;6.940;2023-07-24T20:55:24;5.80;;;5.28;;
13455;SDS011;6800;50.940;6.940;2023-07-24T20:59:25;6.07;;;5.43;;
13455;SDS011;6800;50.940;6.940;2023-07-24T21:03:27;6.97;;;5.28;;
13455;SDS011;6800;50.940;6.940;2023-07-24T21:07:28;9.70;;;5.70;;
13455;SDS011;6800;50.940;6.940;2023-07-24T21:11:29;6.30;;;5.40;;
13455;SDS011;6800;50.940;6.940;2023-07-24T21:15:32;6.32;;;5.72;;
13455;SDS011;6800;50.940;6.940;2023-07-24T21:19:33;9.55;;;7.15;;
13455;SDS011;6800;50.940;6.940;2023-07-24T21:23:35;8.70;;;6.72;;
13455;SDS011;6800;50.940;6.940;2023-07-24T21:27:36;9.57;;;6.43;;
13455;SDS011;6800;50.940;6.940;2023-07-24T21:31:38;7.38;;;6.47;;
13455;SDS011;6800;50.940;6.940;2023-07-24T21:35:43;7.30;;;6.30;;
13455;SDS011;6800;50.940;6.940;2023-07-24T21:39:44;8.15;;;7.25;;
13455;SDS011;6800;50.940;6.940;2023-07-24T21:43:46;9.13;;;7.30;;
13455;SDS011;6800;50.940;6.940;2023-07-24T21:47:47;12.15;;;8.10;;
13455;SDS011;6800;50.940;6.940;2023-07-24T21:51:48;8.05;;;7.25;;
13455;SDS011;6800;50.940;6.940;2023-07-24T21:55:50;8.18;;;7.32;;
13455;SDS011;6800;50.940;6.940;2023-07-24T21:59:52;8.48;;;7.70;;
13455;SDS011;6800;50.940;6.940;2023-07-24T22:03:53;8.82;;;7.90;;
13455;SDS011;6800;50.940;6.940;2023-07-24T22:07:54;8.63;;;7.82;;
13455;SDS011;6800;50.940;6.940;2023-07-24T22:11:56;8.57;;;7.85;;
13455;SDS011;6800;50.940;6.940;2023-07-24T22:15:57;9.37;;;8.43;;
13455;SDS011;6800;50.940;6.940;2023-07-24T22:19:59;9.15;;;8.25;;
13455;SDS011;6800;50.940;6.940;2023-07-24T22:24:06;9.40;;;8.50;;
13455;SDS011;6800;50.940;6.940;2023-07-24T22:28:07;10.75;;;8.57;;
13455;SDS011;6800;50.940;6.940;2023-07-24T22:32:09;9.70;;;8.73;;
13455;SDS011;6800;50.940;6.940;2023-07-24T22:36:10;11.07;;;9.18;;
13455;SDS011;6800;50.940;6.940;2023-07-24T22:40:12;9.45;;;8.60;;
13455;SDS011;6800;50.940;6.940;2023-07-24T22:44:13;10.45;;;8.35;;
13455;SDS011;6800;50.940;6.940;2023-07-24T22:48:15;10.70;;;9.63;;
13455;SDS011;6800;50.940;6.940;2023-07-24T22:52:17;10.70;;;9.57;;
13455;SDS011;6800;50.940;6.940;2023-07-24T22:56:18;11.40;;;6.88;;
13455;SDS011;6800;50.940;6.940;2023-07-24T23:00:19;7.82;;;6.95;;
13455;SDS011;6800;50.940;6.940;2023-07-24T23:04:21;9.13;;;6.53;;
13455;SDS011;6800;50.940;6.940;2023-07-24T23:08:25;9.97;;;7.67;;
13455;SDS011;6800;50.940;6.940;2023-07-24T23:12:26;9.32;;;6.50;;
13455;SDS011;6800;50.940;6.940;2023-07-24T23:16:27;7.57;;;6.00;;
13455;SDS011;6800;50.940;6.940;2023-07-24T23:20:29;7.82;;;5.30;;
13455;SDS011;6800;50.940;6.940;2023-07-24T23:24:31;5.47;;;4.50;;
13455;SDS011;6800;50.940;6.940;2023-07-24T23:28:33;4.47;;;3.70;;
13455;SDS011;6800;50.940;6.940;2023-07-24T23:32:34;5.85;;;3.95;;
13455;SDS011;6800;50.940;6.940;2023-07-24T23:36:36;6.85;;;3.63;;
13455;SDS011;6800;50.940;6.940;2023-07-24T23:40:37;3.70;;;2.97;;
13455;SDS011;6800;50.940;6.940;2023-07-24T23:44:38;4.00;;;2.60;;
13455;SDS011;6800;50.940;6.940;2023-07-24T23:48:40;3.47;;;2.35;;
13455;SDS011;6800;50.940;6.940;2023-07-24T23:52:42;5.77;;;2.57;;
13455;SDS011;6800;50.940;6.940;2023-07-24T23:56:43;3.93;;;2.00;;
